Time;durP1;ratioP1;P1;durP2;ratioP2;P2;SDS_P1;SDS_P2;PMS_P1;PMS_P2;Temp;Humidity;BMP_temperature;BMP_pressure;BME280_temperature;BME280_humidity;BME280_pressure;Samples;Min_cycle;Max_cycle;Signal;HPM_P1;HPM_P2
2021/03/17 00:00:34;;;;;;;14.15;1.63;;;;;;;4.40;93.43;101228.00;5210765;28;20062;-79
2021/03/17 00:03:05;;;;;;;9.00;1.60;;;;;;;4.41;93.10;101237.47;5209108;28;20034;-79
2021/03/17 00:05:37;;;;;;;15.65;1.60;;;;;;;4.35;93.05;101233.19;5212498;28;20033;-79
2021/03/17 00:08:08;;;;;;;12.00;2.05;;;;;;;4.36;92.99;101234.03;5206989;28;20037;-79
2021/03/17 00:10:41;;;;;;;10.13;1.55;;;;;;;4.29;93.63;101230.59;5208933;28;20021;-79
2021/03/17 00:13:12;;;;;;;8.52;1.38;;;;;;;4.34;91.81;101235.78;5202809;28;20036;-79
2021/03/17 00:15:44;;;;;;;9.82;1.63;;;;;;;4.23;92.00;101235.78;5204840;28;20502;-79
2021/03/17 00:18:14;;;;;;;7.80;1.50;;;;;;;4.24;91.71;101240.09;5209808;28;20029;-79
2021/03/17 00:20:44;;;;;;;6.38;1.45;;;;;;;4.28;91.49;101241.81;5211612;28;20025;-79
2021/03/17 00:23:17;;;;;;;13.48;1.60;;;;;;;4.40;90.19;101247.00;5207907;28;20038;-79
2021/03/17 00:25:47;;;;;;;10.88;1.63;;;;;;;4.30;89.83;101239.22;5209643;28;20108;-79
2021/03/17 00:28:18;;;;;;;11.30;1.50;;;;;;;4.34;90.36;101246.13;5206319;28;20105;-79
2021/03/17 00:30:48;;;;;;;12.13;1.42;;;;;;;4.34;90.21;101247.00;5210540;28;20056;-79
2021/03/17 00:33:18;;;;;;;11.10;1.63;;;;;;;4.22;90.40;101251.28;5210833;28;20032;-79
2021/03/17 00:35:49;;;;;;;9.30;1.30;;;;;;;4.21;90.44;101254.72;5210607;28;20523;-79
2021/03/17 00:38:19;;;;;;;8.93;1.85;;;;;;;4.26;90.77;101243.53;5210853;28;20029;-79
2021/03/17 00:40:49;;;;;;;13.77;1.90;;;;;;;4.34;90.23;101251.28;5200385;28;20088;-79
2021/03/17 00:43:20;;;;;;;9.32;1.55;;;;;;;4.35;89.93;101243.53;5201183;28;20042;-79
2021/03/17 00:45:50;;;;;;;6.53;1.35;;;;;;;4.23;89.40;101248.72;5200480;28;20669;-79
2021/03/17 00:48:20;;;;;;;7.70;1.50;;;;;;;4.27;90.22;101247.00;5197942;28;20029;-79
2021/03/17 00:50:50;;;;;;;10.32;1.80;;;;;;;4.34;90.45;101241.81;5199179;28;20037;-79
2021/03/17 00:53:21;;;;;;;6.43;1.75;;;;;;;4.25;89.69;101241.81;5202386;28;20593;-79
2021/03/17 00:55:51;;;;;;;15.13;1.73;;;;;;;4.32;90.59;101242.66;5208835;28;20029;-79
2021/03/17 00:58:21;;;;;;;8.90;2.00;;;;;;;4.21;89.84;101242.66;5206964;28;20125;-79
2021/03/17 01:00:52;;;;;;;10.63;1.88;;;;;;;4.31;89.91;101246.97;5210821;28;20201;-79
2021/03/17 01:03:22;;;;;;;8.88;1.20;;;;;;;4.19;89.69;101247.00;5206576;28;20092;-79
2021/03/17 01:05:52;;;;;;;14.40;1.52;;;;;;;4.24;90.07;101245.25;5205758;28;20032;-79
2021/03/17 01:08:23;;;;;;;11.65;1.48;;;;;;;4.12;89.43;101245.25;5204201;28;20120;-78
2021/03/17 01:10:53;;;;;;;10.52;1.70;;;;;;;4.21;89.54;101240.09;5192876;28;20418;-78
2021/03/17 01:13:23;;;;;;;9.23;1.48;;;;;;;4.16;88.62;101236.59;5209093;28;20478;-79
2021/03/17 01:15:54;;;;;;;11.43;2.00;;;;;;;4.28;88.23;101243.53;5199221;28;20116;-79
2021/03/17 01:18:24;;;;;;;9.10;1.70;;;;;;;4.25;87.51;101241.81;5212111;28;20052;-79
2021/03/17 01:20:56;;;;;;;8.38;1.38;;;;;;;4.11;87.47;101240.94;5211714;28;20041;-79
2021/03/17 01:23:27;;;;;;;6.80;1.38;;;;;;;4.22;87.49;101244.41;5208812;28;20482;-78
2021/03/17 01:25:57;;;;;;;7.75;1.38;;;;;;;3.94;87.36;101240.03;5203632;28;20064;-78
2021/03/17 01:28:28;;;;;;;9.25;1.33;;;;;;;4.04;87.89;101235.75;5207371;28;20078;-79
2021/03/17 01:30:59;;;;;;;6.93;1.40;;;;;;;4.09;88.13;101240.06;5203965;28;20752;-79
2021/03/17 01:33:30;;;;;;;7.05;1.50;;;;;;;4.07;87.80;101231.44;5199563;28;20058;-78
2021/03/17 01:36:01;;;;;;;13.00;1.60;;;;;;;4.06;87.38;101234.91;5205972;28;20410;-79
2021/03/17 01:38:31;;;;;;;7.57;1.15;;;;;;;4.01;87.82;101249.56;5203574;28;20050;-78
2021/03/17 01:41:02;;;;;;;8.75;1.55;;;;;;;4.07;87.82;101246.97;5209821;28;20102;-79
2021/03/17 01:43:33;;;;;;;10.77;1.55;;;;;;;3.93;87.71;101248.66;5209076;28;20399;-79
2021/03/17 01:46:03;;;;;;;7.70;1.40;;;;;;;3.92;87.85;101252.09;5199521;28;20072;-79
2021/03/17 01:48:33;;;;;;;7.00;1.35;;;;;;;3.76;88.59;101244.34;5204057;28;20538;-79
2021/03/17 01:51:04;;;;;;;9.88;1.40;;;;;;;3.83;88.59;101246.06;5197863;28;20029;-78
2021/03/17 01:53:36;;;;;;;12.90;1.60;;;;;;;3.87;88.94;101248.66;5195266;28;20021;-81
2021/03/17 01:56:07;;;;;;;12.50;1.73;;;;;;;3.77;88.94;101252.06;5194945;28;20091;-79
2021/03/17 01:58:37;;;;;;;7.20;1.30;;;;;;;3.66;89.33;101252.91;5195831;28;20022;-78
2021/03/17 02:01:08;;;;;;;8.25;1.00;;;;;;;3.89;89.60;101248.66;5194452;28;20040;-79
2021/03/17 02:03:38;;;;;;;11.07;1.50;;;;;;;3.93;89.67;101247.81;5197064;28;20734;-78
2021/03/17 02:06:09;;;;;;;13.80;1.50;;;;;;;3.88;89.21;101252.97;5193547;28;20540;-79
2021/03/17 02:08:42;;;;;;;9.00;1.48;;;;;;;3.90;89.35;101246.06;5193292;28;20041;-78
2021/03/17 02:11:13;;;;;;;7.60;1.48;;;;;;;3.83;89.55;101252.09;5205096;28;20761;-78
2021/03/17 02:14:15;;;;;;;8.18;1.30;;;;;;;3.83;89.96;101251.22;5202823;28;20100;-78
2021/03/17 02:16:57;;;;;;;8.80;1.33;;;;;;;3.77;89.65;101240.88;5185067;28;20076;-79
2021/03/17 02:19:30;;;;;;;8.32;1.45;;;;;;;3.66;90.68;101248.63;5197331;28;20705;-78
2021/03/17 02:22:22;;;;;;;8.85;1.40;;;;;;;3.62;91.80;101249.44;5191265;28;20384;-81
2021/03/17 02:25:08;;;;;;;7.55;1.20;;;;;;;3.49;92.90;101243.34;5181836;28;20093;-77
2021/03/17 02:27:41;;;;;;;8.20;1.50;;;;;;;3.48;92.91;101237.34;5192859;28;20264;-78
2021/03/17 02:30:30;;;;;;;10.43;1.30;;;;;;;3.39;93.73;101251.94;5208321;28;20029;-80
2021/03/17 02:33:19;;;;;;;9.27;1.63;;;;;;;3.42;94.47;101246.78;5197627;28;20079;-80
2021/03/17 02:35:54;;;;;;;13.05;1.65;;;;;;;3.45;94.21;101247.66;5197557;28;20029;-79
2021/03/17 02:38:27;;;;;;;8.35;1.38;;;;;;;3.46;94.31;101245.94;5191796;28;20033;-79
2021/03/17 02:41:00;;;;;;;8.35;1.38;;;;;;;3.42;95.08;101249.38;5200070;28;20116;-81
2021/03/17 02:43:34;;;;;;;12.00;1.80;;;;;;;3.42;96.05;101247.66;5201320;28;20025;-80
2021/03/17 02:46:09;;;;;;;11.20;1.80;;;;;;;3.43;97.03;101253.69;5200284;28;20063;-80
2021/03/17 02:48:46;;;;;;;11.47;2.33;;;;;;;3.32;97.77;101243.31;5205608;28;20021;-80
2021/03/17 02:51:30;;;;;;;10.95;1.77;;;;;;;3.47;96.98;101252.81;5206329;28;20029;-80
2021/03/17 02:54:04;;;;;;;14.25;2.33;;;;;;;3.51;96.86;101236.50;5206391;28;20033;-79
2021/03/17 02:56:39;;;;;;;10.32;1.77;;;;;;;3.42;97.10;101247.66;5206256;28;20033;-80
2021/03/17 02:59:13;;;;;;;15.32;2.65;;;;;;;3.37;97.46;101248.50;5214340;28;20048;-80
2021/03/17 03:01:45;;;;;;;12.10;1.92;;;;;;;3.45;97.51;101241.63;5202147;28;20029;-78
2021/03/17 03:04:16;;;;;;;12.10;1.77;;;;;;;3.51;96.36;101242.50;5199946;28;20025;-79
2021/03/17 03:06:49;;;;;;;13.77;2.00;;;;;;;3.54;95.70;101236.50;5201363;28;20040;-79
2021/03/17 03:09:23;;;;;;;9.50;1.40;;;;;;;3.56;94.87;101239.97;5211301;28;20130;-79
2021/03/17 03:11:55;;;;;;;15.07;1.67;;;;;;;3.60;94.67;101240.81;5213331;28;20108;-79
2021/03/17 03:14:28;;;;;;;7.30;1.83;;;;;;;3.55;93.81;101238.22;5195780;28;20025;-78
2021/03/17 03:17:03;;;;;;;11.07;1.60;;;;;;;3.56;93.51;101237.38;5208153;28;20033;-79
2021/03/17 03:19:40;;;;;;;8.73;1.52;;;;;;;3.54;93.08;101236.50;5200264;28;20467;-79
2021/03/17 03:22:11;;;;;;;6.75;1.40;;;;;;;3.48;93.19;101236.47;5203053;28;20441;-80
2021/03/17 03:24:43;;;;;;;10.82;1.20;;;;;;;3.52;93.65;101241.66;5199643;28;20117;-79
2021/03/17 03:27:14;;;;;;;13.52;1.85;;;;;;;3.55;94.12;101231.31;5210517;28;20159;-78
2021/03/17 03:29:46;;;;;;;7.97;1.60;;;;;;;3.55;93.99;101240.81;5221570;28;20036;-79
2021/03/17 03:32:16;;;;;;;11.50;1.80;;;;;;;3.52;93.94;101243.41;5211230;28;20021;-82
2021/03/17 03:34:46;;;;;;;10.95;1.98;;;;;;;3.58;94.36;101242.53;5199985;28;20033;-78
2021/03/17 03:37:17;;;;;;;11.13;2.03;;;;;;;3.53;94.70;101245.13;5204566;28;20088;-80
2021/03/17 03:39:47;;;;;;;7.47;1.65;;;;;;;3.48;94.18;101242.50;5213078;28;20043;-79
2021/03/17 03:42:17;;;;;;;10.02;2.05;;;;;;;3.58;93.84;101239.97;5208722;28;20048;-78
2021/03/17 03:44:48;;;;;;;11.48;1.95;;;;;;;3.54;94.31;101239.09;5202653;28;20481;-79
2021/03/17 03:47:18;;;;;;;9.68;1.80;;;;;;;3.53;95.42;101243.38;5210682;28;20070;-79
2021/03/17 03:49:48;;;;;;;9.98;2.28;;;;;;;3.49;95.91;101251.09;5210218;28;20652;-79
2021/03/17 03:52:27;;;;;;;11.77;2.00;;;;;;;3.54;95.75;101233.94;5210324;28;20558;-79
2021/03/17 03:55:03;;;;;;;10.55;2.28;;;;;;;3.55;96.42;101249.41;5207736;28;20122;-79
2021/03/17 03:57:44;;;;;;;19.48;2.45;;;;;;;3.60;96.95;101248.56;5202869;28;20095;-79
2021/03/17 04:00:19;;;;;;;6.03;2.25;;;;;;;3.54;97.93;101252.00;5208867;28;20499;-79
2021/03/17 04:02:51;;;;;;;12.85;3.50;;;;;;;3.42;98.09;101254.53;5206336;28;20037;-79
2021/03/17 04:05:25;;;;;;;16.83;3.10;;;;;;;3.52;97.95;101264.91;5202971;28;20033;-79
2021/03/17 04:07:59;;;;;;;7.05;2.17;;;;;;;3.50;98.09;101260.63;5212563;28;20037;-79
2021/03/17 04:10:32;;;;;;;9.45;2.35;;;;;;;3.48;98.94;101262.31;5208892;28;20064;-79
2021/03/17 04:13:05;;;;;;;9.35;2.35;;;;;;;3.50;98.72;101261.47;5206523;28;20041;-79
2021/03/17 04:15:38;;;;;;;12.00;2.42;;;;;;;3.51;99.05;101270.09;5200825;28;20025;-79
2021/03/17 04:18:12;;;;;;;8.25;2.35;;;;;;;3.41;99.07;101265.72;5211442;28;20098;-79
2021/03/17 04:20:47;;;;;;;10.25;2.60;;;;;;;3.42;98.88;101259.72;5206084;28;20029;-79
2021/03/17 04:23:21;;;;;;;8.55;1.50;;;;;;;3.50;99.01;101260.63;5209113;28;20124;-78
2021/03/17 04:25:54;;;;;;;11.15;2.17;;;;;;;3.43;98.38;101267.47;5210748;28;20039;-79
2021/03/17 04:28:27;;;;;;;9.40;2.38;;;;;;;3.59;98.69;101271.84;5209021;28;20025;-79
2021/03/17 04:31:00;;;;;;;12.88;2.22;;;;;;;3.53;98.89;101268.38;5211423;28;20021;-79
2021/03/17 04:33:31;;;;;;;10.65;2.10;;;;;;;3.54;98.33;101273.53;5208653;28;20049;-79
2021/03/17 04:36:02;;;;;;;10.80;2.35;;;;;;;3.54;98.00;101270.94;5212023;28;20029;-79
2021/03/17 04:38:33;;;;;;;12.30;2.00;;;;;;;3.45;97.82;101278.69;5207952;28;20542;-79
2021/03/17 04:41:04;;;;;;;8.07;2.20;;;;;;;3.53;97.74;101273.53;5208094;28;20040;-79
2021/03/17 04:43:40;;;;;;;11.15;2.05;;;;;;;3.39;98.81;101272.63;5203963;28;20066;-79
2021/03/17 04:46:12;;;;;;;9.50;2.30;;;;;;;3.45;98.55;101285.53;5204972;28;20041;-79
2021/03/17 04:48:44;;;;;;;8.73;2.00;;;;;;;3.34;98.33;101292.41;5214342;28;20483;-79
2021/03/17 04:51:16;;;;;;;7.28;2.17;;;;;;;3.40;98.24;101287.25;5203793;28;20048;-79
2021/03/17 04:53:47;;;;;;;10.02;2.03;;;;;;;3.54;97.29;101283.00;5210368;28;20048;-79
2021/03/17 04:56:19;;;;;;;7.57;1.60;;;;;;;3.61;97.17;101290.81;5211437;28;20101;-79
2021/03/17 04:58:52;;;;;;;9.43;1.80;;;;;;;3.53;97.06;101294.22;5199975;28;20520;-79
2021/03/17 05:01:23;;;;;;;7.07;1.60;;;;;;;3.51;96.63;101289.03;5206703;28;20044;-79
2021/03/17 05:03:54;;;;;;;14.75;1.58;;;;;;;3.42;96.11;101293.28;5212062;28;20065;-79
2021/03/17 05:06:25;;;;;;;12.38;2.33;;;;;;;3.45;96.88;101290.72;5211991;28;20537;-79
2021/03/17 05:08:56;;;;;;;8.63;1.70;;;;;;;3.34;96.60;101300.16;5208817;28;20064;-79
2021/03/17 05:11:28;;;;;;;9.68;1.60;;;;;;;3.36;96.02;101293.28;5213899;28;20087;-79
2021/03/17 05:14:00;;;;;;;6.47;1.80;;;;;;;3.42;96.08;101293.28;5217765;28;20080;-79
2021/03/17 05:16:30;;;;;;;10.15;1.90;;;;;;;3.39;95.71;101293.28;5211470;28;20048;-79
2021/03/17 05:19:03;;;;;;;12.88;1.65;;;;;;;3.40;96.23;101293.28;5211330;28;20021;-79
2021/03/17 05:21:35;;;;;;;7.97;1.60;;;;;;;3.50;96.14;101294.19;5208037;28;20414;-79
2021/03/17 05:24:06;;;;;;;10.40;1.60;;;;;;;3.49;95.65;101302.78;5214945;28;20036;-79
2021/03/17 05:26:37;;;;;;;10.40;1.42;;;;;;;3.40;94.97;101295.00;5212566;28;20029;-79
2021/03/17 05:29:08;;;;;;;9.07;1.60;;;;;;;3.40;95.31;101290.69;5203638;28;20040;-79
2021/03/17 05:31:39;;;;;;;10.05;1.70;;;;;;;3.41;94.93;101283.81;5205177;28;20029;-79
2021/03/17 05:34:09;;;;;;;8.75;1.52;;;;;;;3.41;94.51;101297.59;5200432;28;20051;-79
2021/03/17 05:36:39;;;;;;;8.20;1.63;;;;;;;3.43;94.79;101300.19;5210548;28;20024;-79
2021/03/17 05:39:10;;;;;;;12.38;1.70;;;;;;;3.37;95.36;101298.44;5207679;28;20075;-79
2021/03/17 05:41:41;;;;;;;8.00;1.80;;;;;;;3.34;96.10;101285.50;5213508;28;20407;-79
2021/03/17 05:44:13;;;;;;;9.45;1.70;;;;;;;3.29;95.96;101291.50;5211891;28;20119;-78
2021/03/17 05:46:44;;;;;;;6.93;1.80;;;;;;;3.27;96.31;101283.75;5215220;28;20029;-79
2021/03/17 05:49:15;;;;;;;10.50;2.03;;;;;;;3.26;96.11;101287.19;5212763;28;20076;-79
2021/03/17 05:51:46;;;;;;;10.07;1.80;;;;;;;3.28;96.06;101297.50;5215580;28;20079;-79
2021/03/17 05:54:16;;;;;;;11.40;1.90;;;;;;;3.21;96.09;101294.03;5210529;28;20415;-79
2021/03/17 05:56:47;;;;;;;17.17;2.20;;;;;;;3.14;96.70;101289.69;5202676;28;20076;-79
2021/03/17 05:59:19;;;;;;;8.95;2.05;;;;;;;3.24;96.82;101294.06;5204608;28;20029;-81
2021/03/17 06:01:50;;;;;;;8.00;2.00;;;;;;;3.25;96.73;101294.94;5211171;28;20063;-81
2021/03/17 06:04:20;;;;;;;11.63;2.75;;;;;;;3.28;97.57;101289.78;5210684;28;20051;-81
2021/03/17 06:06:55;;;;;;;11.50;2.45;;;;;;;3.37;97.37;101301.00;5211689;28;20052;-81
2021/03/17 06:09:28;;;;;;;12.80;2.67;;;;;;;3.43;97.45;101305.34;5208240;28;20628;-79
2021/03/17 06:12:00;;;;;;;10.27;2.28;;;;;;;3.49;97.66;101300.19;5211530;28;20565;-79
2021/03/17 06:14:32;;;;;;;12.80;2.95;;;;;;;3.48;97.23;101311.38;5214062;28;20026;-79
2021/03/17 06:17:12;;;;;;;9.88;3.00;;;;;;;3.31;96.64;101310.44;5208549;28;20036;-79
2021/03/17 06:19:43;;;;;;;10.38;2.95;;;;;;;3.35;96.89;101318.22;5202737;28;20087;-79
2021/03/17 06:22:14;;;;;;;11.75;3.03;;;;;;;3.36;97.82;101319.09;5202593;28;20117;-79
2021/03/17 06:24:45;;;;;;;12.27;2.65;;;;;;;3.44;96.60;101326.03;5204107;28;20108;-79
2021/03/17 06:27:15;;;;;;;14.80;3.60;;;;;;;3.26;97.39;101333.69;5200726;28;20029;-79
2021/03/17 06:29:46;;;;;;;10.13;3.30;;;;;;;3.38;97.07;101332.88;5203060;28;20021;-79
2021/03/17 06:32:17;;;;;;;10.95;3.45;;;;;;;3.68;96.92;101336.47;5201286;28;20538;-79
2021/03/17 06:34:49;;;;;;;9.50;3.80;;;;;;;3.61;96.28;101333.00;5201326;28;20044;-79
2021/03/17 06:37:33;;;;;;;14.75;4.55;;;;;;;3.58;96.61;101339.00;5212050;28;20033;-79
2021/03/17 06:40:28;;;;;;;16.20;4.20;;;;;;;3.71;96.14;101334.78;5205141;28;20471;-79
2021/03/17 06:43:10;;;;;;;11.60;4.32;;;;;;;3.65;96.29;101341.63;5199806;28;20041;-79
2021/03/17 06:45:48;;;;;;;12.77;4.45;;;;;;;3.83;96.02;101337.41;5204931;28;20024;-79
2021/03/17 06:48:29;;;;;;;14.82;4.45;;;;;;;3.92;95.68;101340.00;5198449;28;20032;-79
2021/03/17 06:51:19;;;;;;;11.32;4.53;;;;;;;4.01;94.86;101342.66;5210956;28;20036;-79
2021/03/17 06:53:52;;;;;;;15.95;4.68;;;;;;;4.18;93.94;101338.38;5208971;28;20520;-79
2021/03/17 06:56:36;;;;;;;13.20;4.70;;;;;;;4.26;93.72;101335.81;5203047;28;20025;-79
2021/03/17 06:59:08;;;;;;;12.02;4.90;;;;;;;4.56;93.59;101348.78;5191910;28;20540;-79
2021/03/17 07:01:43;;;;;;;15.18;4.65;;;;;;;4.36;93.26;101346.19;5194523;28;20438;-79
2021/03/17 07:04:17;;;;;;;7.47;3.17;;;;;;;4.20;92.42;101344.41;5199992;28;20537;-79
2021/03/17 07:06:49;;;;;;;15.30;4.78;;;;;;;4.42;93.95;101348.75;5203397;28;20471;-79
2021/03/17 07:09:25;;;;;;;14.43;4.90;;;;;;;4.38;93.68;101347.03;5213816;28;20136;-80
2021/03/17 07:12:11;;;;;;;18.90;5.20;;;;;;;4.31;93.64;101347.88;5208138;28;20056;-80
2021/03/17 07:14:43;;;;;;;14.88;5.10;;;;;;;4.68;92.96;101338.44;5188419;28;20025;-80
2021/03/17 07:17:27;;;;;;;11.27;5.00;;;;;;;4.73;92.75;101337.56;5194193;28;20024;-79
2021/03/17 07:19:57;;;;;;;12.55;4.72;;;;;;;4.98;91.39;101341.88;5200253;28;20017;-80
2021/03/17 07:22:28;;;;;;;14.45;5.45;;;;;;;4.96;90.43;101346.19;5214108;28;20037;-78
2021/03/17 07:25:03;;;;;;;14.18;4.90;;;;;;;4.99;90.77;101343.59;5216799;28;20111;-83
2021/03/17 07:27:35;;;;;;;13.32;4.68;;;;;;;4.83;89.89;101341.88;5208482;28;20025;-78
2021/03/17 07:30:06;;;;;;;11.27;4.45;;;;;;;5.23;90.64;101348.75;5198280;28;20052;-78
2021/03/17 07:33:00;;;;;;;11.40;4.32;;;;;;;5.08;88.81;101347.91;5199274;28;20022;-80
2021/03/17 07:35:36;;;;;;;12.35;4.28;;;;;;;5.82;88.41;101350.34;5188116;28;20025;-80
2021/03/17 07:55:08;;;;;;;8.77;3.50;;;;;;;12.13;63.04;101337.88;5386084;22;20056;-81
2021/03/17 07:57:39;;;;;;;10.07;3.40;;;;;;;12.77;59.50;101340.22;5215411;28;20053;-83
2021/03/17 08:00:12;;;;;;;9.77;3.38;;;;;;;11.88;62.65;101334.22;5219936;28;20230;-84
2021/03/17 08:02:44;;;;;;;9.82;3.20;;;;;;;9.10;68.90;101345.94;5228989;28;20025;-81
2021/03/17 08:05:15;;;;;;;9.27;3.15;;;;;;;9.99;68.23;101354.63;5207280;28;20041;-83
2021/03/17 08:07:47;;;;;;;10.40;2.80;;;;;;;11.07;66.40;101346.91;5193837;28;20716;-84
2021/03/17 08:10:17;;;;;;;12.95;2.80;;;;;;;11.24;63.72;101340.34;5196569;28;20021;-80
2021/03/17 08:12:48;;;;;;;9.88;2.15;;;;;;;10.37;62.73;101348.63;5179083;28;20032;-81
2021/03/17 08:15:19;;;;;;;6.28;1.60;;;;;;;12.24;59.47;101333.13;5184170;28;20577;-83
2021/03/17 08:17:50;;;;;;;6.85;1.80;;;;;;;12.45;56.31;101328.09;5195000;28;20428;-82
2021/03/17 08:20:20;;;;;;;6.90;1.38;;;;;;;11.80;55.42;101337.06;5203668;28;20021;-80
2021/03/17 08:22:52;;;;;;;6.45;1.30;;;;;;;11.99;54.92;101333.00;5203633;28;20095;-83
2021/03/17 08:25:46;;;;;;;6.80;1.75;;;;;;;12.03;54.98;101328.53;5201034;28;20389;-80
2021/03/17 08:28:23;;;;;;;7.15;1.50;;;;;;;13.06;52.82;101327.88;5206731;28;20037;-81
2021/03/17 08:30:56;;;;;;;6.57;1.48;;;;;;;10.65;56.89;101341.88;5199097;28;20034;-79
2021/03/17 08:33:39;;;;;;;5.95;1.10;;;;;;;11.86;55.31;101336.91;5194361;28;20026;-79
2021/03/17 08:36:15;;;;;;;6.78;1.27;;;;;;;11.50;54.38;101344.88;5182635;28;20037;-84
2021/03/17 08:38:58;;;;;;;6.18;1.40;;;;;;;11.05;56.91;101349.56;5185399;28;20511;-81
2021/03/17 08:41:44;;;;;;;11.52;1.38;;;;;;;9.86;58.51;101362.75;5200565;28;20371;-81
2021/03/17 08:44:19;;;;;;;5.45;1.13;;;;;;;9.89;56.92;101352.22;5191779;28;20026;-80
2021/03/17 08:46:52;;;;;;;9.35;1.40;;;;;;;9.14;60.54;101348.47;5185536;28;20025;-83
2021/03/17 08:49:35;;;;;;;7.22;1.40;;;;;;;8.44;63.24;101349.63;5216612;28;20009;-81
2021/03/17 08:52:14;;;;;;;6.65;1.10;;;;;;;8.24;62.62;101362.91;5222589;28;20033;-80
2021/03/17 08:54:53;;;;;;;6.75;1.20;;;;;;;8.55;63.41;101360.75;5217971;28;20386;-80
2021/03/17 08:57:24;;;;;;;11.40;1.58;;;;;;;8.11;63.93;101371.75;5201819;28;20467;-79
2021/03/17 09:00:01;;;;;;;5.80;1.25;;;;;;;7.78;65.24;101369.56;5195904;28;20089;-82
2021/03/17 09:02:31;;;;;;;7.93;1.25;;;;;;;7.53;65.43;101382.84;5195018;28;20021;-84
2021/03/17 09:05:16;;;;;;;11.10;1.45;;;;;;;7.10;66.80;101385.88;5202865;28;20155;-82
2021/03/17 09:08:02;;;;;;;7.35;1.42;;;;;;;6.95;68.07;101386.84;5219696;28;20078;-82
2021/03/17 09:10:47;;;;;;;8.95;1.35;;;;;;;6.91;68.06;101394.69;5208421;28;20029;-83
2021/03/17 09:13:50;;;;;;;5.60;1.25;;;;;;;6.78;68.58;101387.84;5205667;28;20041;-81
2021/03/17 09:16:20;;;;;;;7.57;1.20;;;;;;;6.68;68.64;101384.47;5204841;28;20041;-83
2021/03/17 09:19:03;;;;;;;9.20;1.40;;;;;;;6.62;68.64;101386.22;5218579;28;20281;-81
2021/03/17 09:21:35;;;;;;;7.03;0.90;;;;;;;6.73;67.92;101392.22;5211076;28;20038;-81
2021/03/17 09:24:33;;;;;;;4.70;1.02;;;;;;;6.29;68.76;101391.63;5202563;28;20022;-81
2021/03/17 09:27:06;;;;;;;7.53;1.20;;;;;;;6.13;68.37;101400.34;5207556;28;20030;-81
2021/03/17 09:29:37;;;;;;;13.07;1.33;;;;;;;6.16;68.84;101395.16;5190122;28;20049;-83
2021/03/17 09:32:08;;;;;;;10.23;1.30;;;;;;;6.28;69.83;101397.69;5200449;28;20026;-81
2021/03/17 09:34:38;;;;;;;6.28;1.23;;;;;;;6.41;68.76;101391.56;5198493;28;20033;-81
2021/03/17 09:37:11;;;;;;;8.25;1.30;;;;;;;6.59;68.38;101392.31;5203956;28;20026;-81
2021/03/17 09:39:48;;;;;;;8.63;1.38;;;;;;;6.41;68.79;101387.22;5210321;28;20518;-83
2021/03/17 09:42:19;;;;;;;7.88;1.10;;;;;;;6.72;69.18;101398.28;5206908;28;20499;-81
2021/03/17 09:44:59;;;;;;;10.50;1.40;;;;;;;6.33;69.78;101393.34;5197908;28;20021;-81
2021/03/17 09:47:30;;;;;;;6.95;1.10;;;;;;;6.79;69.86;101398.22;5213308;28;20017;-82
2021/03/17 09:50:01;;;;;;;8.10;1.45;;;;;;;6.91;69.74;101399.88;5204215;28;20124;-82
2021/03/17 09:52:31;;;;;;;9.13;1.70;;;;;;;6.90;69.35;101398.16;5185902;28;20220;-82
2021/03/17 09:55:02;;;;;;;10.05;1.40;;;;;;;6.90;69.15;101399.00;5185796;28;20080;-81
2021/03/17 09:57:32;;;;;;;5.90;1.33;;;;;;;6.79;69.65;101394.78;5197932;28;20025;-83
2021/03/17 10:00:03;;;;;;;7.95;1.50;;;;;;;6.89;69.87;101397.28;5212989;28;20055;-82
2021/03/17 10:02:33;;;;;;;8.95;1.80;;;;;;;6.95;69.43;101392.03;5209790;28;20029;-81
2021/03/17 10:05:04;;;;;;;13.73;1.70;;;;;;;6.50;70.54;101401.88;5206133;28;20029;-80
2021/03/17 10:07:35;;;;;;;7.68;1.40;;;;;;;6.75;72.17;101395.69;5205314;28;20074;-81
2021/03/17 10:10:06;;;;;;;7.78;1.40;;;;;;;6.49;70.98;101400.16;5210788;28;20032;-81
2021/03/17 10:12:36;;;;;;;7.60;1.70;;;;;;;6.53;71.73;101391.47;5210637;28;20045;-83
2021/03/17 10:15:09;;;;;;;8.10;1.70;;;;;;;6.58;71.94;101389.72;5201046;28;20044;-82
2021/03/17 10:17:42;;;;;;;8.80;1.80;;;;;;;6.75;70.41;101398.28;5208383;28;20029;-82
2021/03/17 10:20:15;;;;;;;8.75;1.73;;;;;;;7.08;70.34;101392.81;5210797;28;20025;-81
2021/03/17 10:22:48;;;;;;;11.30;2.40;;;;;;;7.30;69.63;101396.06;5205674;28;20512;-81
2021/03/17 10:25:21;;;;;;;8.45;1.90;;;;;;;7.22;68.64;101394.41;5205288;28;20033;-81
2021/03/17 10:28:04;;;;;;;7.05;1.50;;;;;;;7.09;70.30;101389.34;5205572;28;20021;-82
2021/03/17 10:30:40;;;;;;;7.38;1.95;;;;;;;6.91;71.73;101389.50;5193785;28;20025;-81
2021/03/17 10:33:15;;;;;;;6.25;1.50;;;;;;;7.34;69.16;101387.34;5195139;28;20025;-81
2021/03/17 10:35:47;;;;;;;8.82;1.70;;;;;;;7.41;68.49;101388.16;5213439;28;20028;-81
2021/03/17 10:38:17;;;;;;;10.23;1.67;;;;;;;7.18;67.88;101389.25;5205806;28;20045;-84
2021/03/17 10:40:47;;;;;;;12.02;1.50;;;;;;;7.48;68.30;101389.81;5190296;28;20419;-83
2021/03/17 10:43:18;;;;;;;14.25;4.68;;;;;;;7.62;69.28;101393.13;5214066;28;20025;-82
2021/03/17 10:45:51;;;;;;;9.55;2.08;;;;;;;7.76;69.17;101389.53;5185829;28;20025;-81
2021/03/17 10:48:26;;;;;;;9.80;2.55;;;;;;;7.89;68.32;101385.03;5204589;28;20025;-81
2021/03/17 10:50:57;;;;;;;13.52;4.05;;;;;;;7.98;68.23;101392.72;5207981;28;20037;-81
2021/03/17 10:53:29;;;;;;;15.32;8.13;;;;;;;7.75;68.24;101394.75;5220554;28;20086;-81
2021/03/17 10:56:03;;;;;;;7.38;2.30;;;;;;;7.44;68.15;101404.59;5196518;28;20041;-81
2021/03/17 10:58:39;;;;;;;10.02;1.70;;;;;;;7.30;68.61;101401.28;5184826;28;20034;-84
2021/03/17 11:01:21;;;;;;;8.32;2.03;;;;;;;7.58;69.48;101394.94;5192958;28;20029;-81
2021/03/17 11:04:06;;;;;;;8.35;2.00;;;;;;;7.41;69.45;101394.25;5211787;28;20021;-83
2021/03/17 11:06:36;;;;;;;7.23;1.83;;;;;;;7.18;68.65;101405.72;5203744;28;20036;-81
2021/03/17 11:09:09;;;;;;;10.20;1.98;;;;;;;7.33;69.54;101405.59;5203066;28;20511;-81
2021/03/17 11:11:53;;;;;;;11.18;3.30;;;;;;;7.49;69.24;101399.38;5195273;28;20491;-81
2021/03/17 11:14:36;;;;;;;9.45;3.55;;;;;;;7.60;69.60;101397.50;5209094;28;20033;-82
2021/03/17 11:17:08;;;;;;;7.43;1.65;;;;;;;7.38;69.13;101411.59;5208332;28;20028;-82
2021/03/17 11:19:38;;;;;;;7.43;1.70;;;;;;;7.60;69.30;101400.09;5218957;28;20076;-81
2021/03/17 11:22:08;;;;;;;8.07;1.30;;;;;;;7.29;68.03;101399.53;5196521;28;20025;-84
2021/03/17 11:24:39;;;;;;;6.50;1.30;;;;;;;7.37;68.65;101395.13;5210462;28;20052;-83
2021/03/17 11:27:26;;;;;;;10.35;2.13;;;;;;;7.63;68.94;101398.34;5205138;28;20057;-81
2021/03/17 11:29:56;;;;;;;9.40;2.03;;;;;;;7.69;68.07;101400.03;5204262;28;20045;-81
2021/03/17 11:32:29;;;;;;;8.82;1.60;;;;;;;7.44;67.61;101399.41;5211741;28;20501;-83
2021/03/17 11:35:00;;;;;;;12.25;2.65;;;;;;;7.94;67.55;101401.44;5193645;28;20025;-81
2021/03/17 11:37:30;;;;;;;13.95;4.35;;;;;;;8.10;68.73;101408.19;5212735;28;20039;-82
2021/03/17 11:40:01;;;;;;;7.72;2.10;;;;;;;7.96;67.40;101405.78;5215720;28;20542;-81
2021/03/17 11:42:31;;;;;;;10.75;1.73;;;;;;;7.77;66.40;101401.66;5215808;28;20441;-81
2021/03/17 11:45:02;;;;;;;9.57;1.55;;;;;;;7.67;66.39;101396.56;5202224;28;20053;-80
2021/03/17 11:47:33;;;;;;;9.75;3.00;;;;;;;7.78;68.36;101399.91;5197935;28;20032;-82
2021/03/17 11:50:03;;;;;;;7.03;1.70;;;;;;;8.05;66.83;101397.84;5205791;28;20029;-82
2021/03/17 11:52:34;;;;;;;9.25;2.20;;;;;;;7.99;66.96;101397.91;5188188;28;20112;-81
2021/03/17 11:55:05;;;;;;;6.93;1.73;;;;;;;7.82;67.29;101409.38;5204294;28;20495;-81
2021/03/17 11:57:35;;;;;;;7.60;1.27;;;;;;;8.05;67.91;101405.66;5200113;28;20113;-82
2021/03/17 12:00:06;;;;;;;8.80;1.77;;;;;;;7.86;67.54;101409.34;5197766;28;20018;-82
2021/03/17 12:02:36;;;;;;;9.40;1.50;;;;;;;7.46;67.34;101409.78;5204835;28;20084;-81
2021/03/17 12:05:07;;;;;;;10.75;3.50;;;;;;;7.56;68.01;101409.66;5193297;28;20026;-81
2021/03/17 12:07:38;;;;;;;15.20;5.85;;;;;;;7.78;66.86;101412.91;5193953;28;20663;-81
2021/03/17 12:10:09;;;;;;;8.68;1.70;;;;;;;7.61;67.14;101407.91;5208545;28;20088;-82
2021/03/17 12:12:40;;;;;;;5.80;1.35;;;;;;;7.49;65.83;101401.97;5212240;28;20060;-81
2021/03/17 12:15:17;;;;;;;4.97;1.20;;;;;;;7.63;65.97;101403.53;5202709;28;20060;-82